sensor_id;sensor_type;location;lat;lon;timestamp;P1;durP1;ratioP1;P2;durP2;ratioP2
351;SDS011;164;50.784;6.496;2022-10-16T00:00:32;2.72;;;1.60;;
351;SDS011;164;50.784;6.496;2022-10-16T00:03:00;3.20;;;1.90;;
351;SDS011;164;50.784;6.496;2022-10-16T00:05:27;1.65;;;1.60;;
351;SDS011;164;50.784;6.496;2022-10-16T00:07:54;1.20;;;1.17;;
351;SDS011;164;50.784;6.496;2022-10-16T00:10:21;2.80;;;1.38;;
351;SDS011;164;50.784;6.496;2022-10-16T00:12:48;1.30;;;1.20;;
351;SDS011;164;50.784;6.496;2022-10-16T00:15:17;2.15;;;1.67;;
351;SDS011;164;50.784;6.496;2022-10-16T00:17:44;1.45;;;1.35;;
351;SDS011;164;50.784;6.496;2022-10-16T00:20:11;2.40;;;1.80;;
351;SDS011;164;50.784;6.496;2022-10-16T00:22:38;2.50;;;1.73;;
351;SDS011;164;50.784;6.496;2022-10-16T00:25:05;2.17;;;1.75;;
351;SDS011;164;50.784;6.496;2022-10-16T00:27:33;2.13;;;1.20;;
351;SDS011;164;50.784;6.496;2022-10-16T00:30:00;2.13;;;1.45;;
351;SDS011;164;50.784;6.496;2022-10-16T00:32:28;1.55;;;1.50;;
351;SDS011;164;50.784;6.496;2022-10-16T00:34:55;2.40;;;1.52;;
351;SDS011;164;50.784;6.496;2022-10-16T00:37:22;1.90;;;1.80;;
351;SDS011;164;50.784;6.496;2022-10-16T00:39:49;2.08;;;1.13;;
351;SDS011;164;50.784;6.496;2022-10-16T00:42:17;1.85;;;1.30;;
351;SDS011;164;50.784;6.496;2022-10-16T00:44:46;1.95;;;1.70;;
351;SDS011;164;50.784;6.496;2022-10-16T00:47:19;1.42;;;0.90;;
351;SDS011;164;50.784;6.496;2022-10-16T00:49:50;1.92;;;1.65;;
351;SDS011;164;50.784;6.496;2022-10-16T00:52:21;1.40;;;1.30;;
351;SDS011;164;50.784;6.496;2022-10-16T00:54:48;2.55;;;1.40;;
351;SDS011;164;50.784;6.496;2022-10-16T00:57:16;3.03;;;1.80;;
351;SDS011;164;50.784;6.496;2022-10-16T00:59:44;3.22;;;1.20;;
351;SDS011;164;50.784;6.496;2022-10-16T01:02:12;2.45;;;1.20;;
351;SDS011;164;50.784;6.496;2022-10-16T01:04:41;1.85;;;1.27;;
351;SDS011;164;50.784;6.496;2022-10-16T01:07:14;3.05;;;1.25;;
351;SDS011;164;50.784;6.496;2022-10-16T01:09:51;1.15;;;1.10;;
351;SDS011;164;50.784;6.496;2022-10-16T01:12:29;2.20;;;1.08;;
351;SDS011;164;50.784;6.496;2022-10-16T01:15:06;1.30;;;1.20;;
351;SDS011;164;50.784;6.496;2022-10-16T01:17:39;2.15;;;1.08;;
351;SDS011;164;50.784;6.496;2022-10-16T01:20:12;1.10;;;1.00;;
351;SDS011;164;50.784;6.496;2022-10-16T01:22:50;1.13;;;1.02;;
351;SDS011;164;50.784;6.496;2022-10-16T01:25:30;2.38;;;1.77;;
351;SDS011;164;50.784;6.496;2022-10-16T01:28:23;1.25;;;1.17;;
351;SDS011;164;50.784;6.496;2022-10-16T01:30:55;1.30;;;1.02;;
351;SDS011;164;50.784;6.496;2022-10-16T01:33:26;1.98;;;1.45;;
351;SDS011;164;50.784;6.496;2022-10-16T01:35:58;1.30;;;1.20;;
351;SDS011;164;50.784;6.496;2022-10-16T01:38:29;2.63;;;1.02;;
351;SDS011;164;50.784;6.496;2022-10-16T01:41:00;1.48;;;0.95;;
351;SDS011;164;50.784;6.496;2022-10-16T01:43:35;4.10;;;1.20;;
351;SDS011;164;50.784;6.496;2022-10-16T01:46:05;1.88;;;0.85;;
351;SDS011;164;50.784;6.496;2022-10-16T01:48:33;0.95;;;0.88;;
351;SDS011;164;50.784;6.496;2022-10-16T01:51:03;1.00;;;0.90;;
351;SDS011;164;50.784;6.496;2022-10-16T01:53:32;2.15;;;0.93;;
351;SDS011;164;50.784;6.496;2022-10-16T01:56:01;1.35;;;1.25;;
351;SDS011;164;50.784;6.496;2022-10-16T01:58:30;1.10;;;1.00;;
351;SDS011;164;50.784;6.496;2022-10-16T02:01:04;1.35;;;0.88;;
351;SDS011;164;50.784;6.496;2022-10-16T02:03:36;0.75;;;0.73;;
351;SDS011;164;50.784;6.496;2022-10-16T02:06:05;1.33;;;1.05;;
351;SDS011;164;50.784;6.496;2022-10-16T02:08:34;2.47;;;0.90;;
351;SDS011;164;50.784;6.496;2022-10-16T02:11:02;1.35;;;0.90;;
351;SDS011;164;50.784;6.496;2022-10-16T02:13:30;1.02;;;0.93;;
351;SDS011;164;50.784;6.496;2022-10-16T02:16:01;0.98;;;0.70;;
351;SDS011;164;50.784;6.496;2022-10-16T02:18:28;1.38;;;1.00;;
351;SDS011;164;50.784;6.496;2022-10-16T02:20:57;1.65;;;1.05;;
351;SDS011;164;50.784;6.496;2022-10-16T02:23:29;2.05;;;0.70;;
351;SDS011;164;50.784;6.496;2022-10-16T02:26:03;1.30;;;1.10;;
351;SDS011;164;50.784;6.496;2022-10-16T02:28:34;1.77;;;1.05;;
351;SDS011;164;50.784;6.496;2022-10-16T02:31:08;1.10;;;0.80;;
351;SDS011;164;50.784;6.496;2022-10-16T02:33:38;1.50;;;1.00;;
351;SDS011;164;50.784;6.496;2022-10-16T02:36:08;1.98;;;1.08;;
351;SDS011;164;50.784;6.496;2022-10-16T02:38:35;1.35;;;1.25;;
351;SDS011;164;50.784;6.496;2022-10-16T02:41:04;1.38;;;0.80;;
351;SDS011;164;50.784;6.496;2022-10-16T02:43:31;1.73;;;1.00;;
351;SDS011;164;50.784;6.496;2022-10-16T02:45:59;1.45;;;1.00;;
351;SDS011;164;50.784;6.496;2022-10-16T02:48:27;2.00;;;0.80;;
351;SDS011;164;50.784;6.496;2022-10-16T02:50:54;1.55;;;1.20;;
351;SDS011;164;50.784;6.496;2022-10-16T02:53:22;1.20;;;1.10;;
351;SDS011;164;50.784;6.496;2022-10-16T02:55:49;4.22;;;0.90;;
351;SDS011;164;50.784;6.496;2022-10-16T02:58:16;1.10;;;1.00;;
351;SDS011;164;50.784;6.496;2022-10-16T03:00:42;1.08;;;1.00;;
351;SDS011;164;50.784;6.496;2022-10-16T03:03:10;2.63;;;1.17;;
351;SDS011;164;50.784;6.496;2022-10-16T03:05:38;1.20;;;1.20;;
351;SDS011;164;50.784;6.496;2022-10-16T03:08:05;1.20;;;1.15;;
351;SDS011;164;50.784;6.496;2022-10-16T03:10:32;0.80;;;0.70;;
351;SDS011;164;50.784;6.496;2022-10-16T03:13:08;1.63;;;0.88;;
351;SDS011;164;50.784;6.496;2022-10-16T03:15:35;0.80;;;0.80;;
351;SDS011;164;50.784;6.496;2022-10-16T03:18:02;2.72;;;1.15;;
351;SDS011;164;50.784;6.496;2022-10-16T03:20:29;3.22;;;1.10;;
351;SDS011;164;50.784;6.496;2022-10-16T03:22:57;4.63;;;0.98;;
351;SDS011;164;50.784;6.496;2022-10-16T03:25:24;1.92;;;1.20;;
351;SDS011;164;50.784;6.496;2022-10-16T03:27:51;1.63;;;1.50;;
351;SDS011;164;50.784;6.496;2022-10-16T03:30:18;2.25;;;1.00;;
351;SDS011;164;50.784;6.496;2022-10-16T03:32:46;1.52;;;1.08;;
351;SDS011;164;50.784;6.496;2022-10-16T03:35:13;1.40;;;0.98;;
351;SDS011;164;50.784;6.496;2022-10-16T03:37:40;2.85;;;1.38;;
351;SDS011;164;50.784;6.496;2022-10-16T03:40:08;1.70;;;1.10;;
351;SDS011;164;50.784;6.496;2022-10-16T03:42:36;1.88;;;1.55;;
351;SDS011;164;50.784;6.496;2022-10-16T03:45:03;0.90;;;0.77;;
351;SDS011;164;50.784;6.496;2022-10-16T03:47:31;1.38;;;0.80;;
351;SDS011;164;50.784;6.496;2022-10-16T03:49:58;1.80;;;0.80;;
351;SDS011;164;50.784;6.496;2022-10-16T03:52:25;0.90;;;0.85;;
351;SDS011;164;50.784;6.496;2022-10-16T03:54:52;0.90;;;0.80;;
351;SDS011;164;50.784;6.496;2022-10-16T03:57:21;2.45;;;1.13;;
351;SDS011;164;50.784;6.496;2022-10-16T03:59:48;1.65;;;0.90;;
351;SDS011;164;50.784;6.496;2022-10-16T04:02:15;2.50;;;1.15;;
351;SDS011;164;50.784;6.496;2022-10-16T04:04:42;2.58;;;0.93;;
351;SDS011;164;50.784;6.496;2022-10-16T04:07:09;1.65;;;1.23;;
351;SDS011;164;50.784;6.496;2022-10-16T04:09:36;1.60;;;1.20;;
351;SDS011;164;50.784;6.496;2022-10-16T04:12:03;1.25;;;0.80;;
351;SDS011;164;50.784;6.496;2022-10-16T04:14:31;3.25;;;1.05;;
351;SDS011;164;50.784;6.496;2022-10-16T04:16:59;1.23;;;1.20;;
351;SDS011;164;50.784;6.496;2022-10-16T04:19:26;1.35;;;0.88;;
351;SDS011;164;50.784;6.496;2022-10-16T04:21:52;1.35;;;1.00;;
351;SDS011;164;50.784;6.496;2022-10-16T04:24:20;1.73;;;1.63;;
351;SDS011;164;50.784;6.496;2022-10-16T04:26:46;0.70;;;0.70;;
351;SDS011;164;50.784;6.496;2022-10-16T04:29:13;1.05;;;0.98;;
351;SDS011;164;50.784;6.496;2022-10-16T04:31:42;1.23;;;1.00;;
351;SDS011;164;50.784;6.496;2022-10-16T04:34:09;3.17;;;0.90;;
351;SDS011;164;50.784;6.496;2022-10-16T04:36:36;2.63;;;1.25;;
351;SDS011;164;50.784;6.496;2022-10-16T04:39:03;3.40;;;1.00;;
351;SDS011;164;50.784;6.496;2022-10-16T04:41:30;1.45;;;0.80;;
351;SDS011;164;50.784;6.496;2022-10-16T04:43:57;1.45;;;1.23;;
351;SDS011;164;50.784;6.496;2022-10-16T04:46:24;0.98;;;0.93;;
351;SDS011;164;50.784;6.496;2022-10-16T04:48:52;0.95;;;0.85;;
351;SDS011;164;50.784;6.496;2022-10-16T04:51:20;0.82;;;0.77;;
351;SDS011;164;50.784;6.496;2022-10-16T04:53:47;1.90;;;0.93;;
351;SDS011;164;50.784;6.496;2022-10-16T04:56:14;1.73;;;1.10;;
351;SDS011;164;50.784;6.496;2022-10-16T04:58:41;2.05;;;0.93;;
351;SDS011;164;50.784;6.496;2022-10-16T05:01:08;1.50;;;1.15;;
351;SDS011;164;50.784;6.496;2022-10-16T05:03:35;1.00;;;0.90;;
351;SDS011;164;50.784;6.496;2022-10-16T05:06:05;1.05;;;0.95;;
351;SDS011;164;50.784;6.496;2022-10-16T05:08:32;1.33;;;0.90;;
351;SDS011;164;50.784;6.496;2022-10-16T05:10:59;1.60;;;1.20;;
351;SDS011;164;50.784;6.496;2022-10-16T05:13:26;1.08;;;0.98;;
351;SDS011;164;50.784;6.496;2022-10-16T05:15:53;1.13;;;0.98;;
351;SDS011;164;50.784;6.496;2022-10-16T05:18:20;1.60;;;1.13;;
351;SDS011;164;50.784;6.496;2022-10-16T05:20:47;1.65;;;1.00;;
351;SDS011;164;50.784;6.496;2022-10-16T05:23:15;1.73;;;1.00;;
351;SDS011;164;50.784;6.496;2022-10-16T05:25:42;1.48;;;1.45;;
351;SDS011;164;50.784;6.496;2022-10-16T05:28:09;1.40;;;1.30;;
351;SDS011;164;50.784;6.496;2022-10-16T05:30:36;4.82;;;1.10;;
351;SDS011;164;50.784;6.496;2022-10-16T05:33:04;1.65;;;1.00;;
351;SDS011;164;50.784;6.496;2022-10-16T05:35:30;1.30;;;1.20;;
351;SDS011;164;50.784;6.496;2022-10-16T05:37:57;1.45;;;1.00;;
351;SDS011;164;50.784;6.496;2022-10-16T05:40:26;1.25;;;1.15;;
351;SDS011;164;50.784;6.496;2022-10-16T05:42:54;1.80;;;1.65;;
351;SDS011;164;50.784;6.496;2022-10-16T05:45:21;3.05;;;2.85;;
351;SDS011;164;50.784;6.496;2022-10-16T05:47:49;1.98;;;1.50;;
351;SDS011;164;50.784;6.496;2022-10-16T05:50:16;3.17;;;1.50;;
351;SDS011;164;50.784;6.496;2022-10-16T05:52:43;1.30;;;1.20;;
351;SDS011;164;50.784;6.496;2022-10-16T05:55:10;1.20;;;1.10;;
351;SDS011;164;50.784;6.496;2022-10-16T05:57:38;1.40;;;1.10;;
351;SDS011;164;50.784;6.496;2022-10-16T06:00:06;1.33;;;1.23;;
351;SDS011;164;50.784;6.496;2022-10-16T06:02:33;1.30;;;1.20;;
351;SDS011;164;50.784;6.496;2022-10-16T06:05:00;1.52;;;1.42;;
351;SDS011;164;50.784;6.496;2022-10-16T06:07:27;5.90;;;1.50;;
351;SDS011;164;50.784;6.496;2022-10-16T06:09:54;2.05;;;1.15;;
351;SDS011;164;50.784;6.496;2022-10-16T06:12:21;2.33;;;1.77;;
351;SDS011;164;50.784;6.496;2022-10-16T06:14:50;1.48;;;1.35;;
351;SDS011;164;50.784;6.496;2022-10-16T06:17:17;2.45;;;1.48;;
351;SDS011;164;50.784;6.496;2022-10-16T06:19:44;2.70;;;1.50;;
351;SDS011;164;50.784;6.496;2022-10-16T06:22:11;2.67;;;2.47;;
351;SDS011;164;50.784;6.496;2022-10-16T06:24:38;2.03;;;1.40;;
351;SDS011;164;50.784;6.496;2022-10-16T06:27:04;6.15;;;1.60;;
351;SDS011;164;50.784;6.496;2022-10-16T06:29:32;4.95;;;1.65;;
351;SDS011;164;50.784;6.496;2022-10-16T06:32:00;3.80;;;3.10;;
351;SDS011;164;50.784;6.496;2022-10-16T06:34:28;6.47;;;3.50;;
351;SDS011;164;50.784;6.496;2022-10-16T06:36:54;4.40;;;2.50;;
351;SDS011;164;50.784;6.496;2022-10-16T06:39:21;2.08;;;1.70;;
351;SDS011;164;50.784;6.496;2022-10-16T06:41:49;2.35;;;2.13;;
351;SDS011;164;50.784;6.496;2022-10-16T06:44:16;2.30;;;2.15;;
351;SDS011;164;50.784;6.496;2022-10-16T06:46:42;2.58;;;2.30;;
351;SDS011;164;50.784;6.496;2022-10-16T06:49:11;2.20;;;2.00;;
351;SDS011;164;50.784;6.496;2022-10-16T06:51:38;5.25;;;3.05;;
351;SDS011;164;50.784;6.496;2022-10-16T06:54:06;1.70;;;1.60;;
351;SDS011;164;50.784;6.496;2022-10-16T06:56:33;1.75;;;1.65;;
351;SDS011;164;50.784;6.496;2022-10-16T06:59:01;2.80;;;2.33;;
351;SDS011;164;50.784;6.496;2022-10-16T07:01:29;2.33;;;1.67;;
351;SDS011;164;50.784;6.496;2022-10-16T07:03:56;2.40;;;1.90;;
351;SDS011;164;50.784;6.496;2022-10-16T07:06:25;2.95;;;1.65;;
351;SDS011;164;50.784;6.496;2022-10-16T07:08:53;4.47;;;1.73;;
351;SDS011;164;50.784;6.496;2022-10-16T07:11:20;2.60;;;1.67;;
351;SDS011;164;50.784;6.496;2022-10-16T07:13:49;3.70;;;2.88;;
351;SDS011;164;50.784;6.496;2022-10-16T07:16:17;4.40;;;1.67;;
351;SDS011;164;50.784;6.496;2022-10-16T07:18:46;5.22;;;2.55;;
351;SDS011;164;50.784;6.496;2022-10-16T07:21:14;4.75;;;2.22;;
351;SDS011;164;50.784;6.496;2022-10-16T07:23:45;3.53;;;2.40;;
351;SDS011;164;50.784;6.496;2022-10-16T07:26:16;4.03;;;2.97;;
351;SDS011;164;50.784;6.496;2022-10-16T07:28:44;3.70;;;2.60;;
351;SDS011;164;50.784;6.496;2022-10-16T07:31:12;3.95;;;2.63;;
351;SDS011;164;50.784;6.496;2022-10-16T07:33:40;4.28;;;3.03;;
351;SDS011;164;50.784;6.496;2022-10-16T07:36:09;3.13;;;2.22;;
351;SDS011;164;50.784;6.496;2022-10-16T07:38:37;2.83;;;2.58;;
351;SDS011;164;50.784;6.496;2022-10-16T07:41:06;2.90;;;2.30;;
351;SDS011;164;50.784;6.496;2022-10-16T07:43:35;3.90;;;2.25;;
351;SDS011;164;50.784;6.496;2022-10-16T07:46:02;4.22;;;2.10;;
351;SDS011;164;50.784;6.496;2022-10-16T07:48:30;1.85;;;1.75;;
351;SDS011;164;50.784;6.496;2022-10-16T07:50:58;2.60;;;1.70;;
351;SDS011;164;50.784;6.496;2022-10-16T07:53:26;1.75;;;1.30;;
351;SDS011;164;50.784;6.496;2022-10-16T07:55:56;4.60;;;2.00;;
351;SDS011;164;50.784;6.496;2022-10-16T07:58:25;2.20;;;1.60;;
351;SDS011;164;50.784;6.496;2022-10-16T08:00:52;2.75;;;1.40;;
351;SDS011;164;50.784;6.496;2022-10-16T08:03:19;2.72;;;1.90;;
351;SDS011;164;50.784;6.496;2022-10-16T08:05:46;4.00;;;2.10;;
351;SDS011;164;50.784;6.496;2022-10-16T08:08:13;6.18;;;2.78;;
351;SDS011;164;50.784;6.496;2022-10-16T08:10:41;2.67;;;1.88;;
351;SDS011;164;50.784;6.496;2022-10-16T08:13:08;1.90;;;1.70;;
351;SDS011;164;50.784;6.496;2022-10-16T08:15:37;2.92;;;2.00;;
351;SDS011;164;50.784;6.496;2022-10-16T08:18:04;3.10;;;2.00;;
351;SDS011;164;50.784;6.496;2022-10-16T08:20:32;2.90;;;2.08;;
351;SDS011;164;50.784;6.496;2022-10-16T08:22:59;2.17;;;1.58;;
351;SDS011;164;50.784;6.496;2022-10-16T08:25:27;2.90;;;1.10;;
351;SDS011;164;50.784;6.496;2022-10-16T08:27:54;2.15;;;1.23;;
351;SDS011;164;50.784;6.496;2022-10-16T08:30:21;1.95;;;1.15;;
351;SDS011;164;50.784;6.496;2022-10-16T08:32:50;3.42;;;2.13;;
351;SDS011;164;50.784;6.496;2022-10-16T08:35:18;1.70;;;1.20;;
351;SDS011;164;50.784;6.496;2022-10-16T08:37:45;3.33;;;0.98;;
351;SDS011;164;50.784;6.496;2022-10-16T08:40:16;1.38;;;0.77;;
351;SDS011;164;50.784;6.496;2022-10-16T08:42:53;1.15;;;0.90;;
351;SDS011;164;50.784;6.496;2022-10-16T08:45:41;1.50;;;0.70;;
351;SDS011;164;50.784;6.496;2022-10-16T08:48:19;1.30;;;0.90;;
351;SDS011;164;50.784;6.496;2022-10-16T08:50:49;2.88;;;1.15;;
351;SDS011;164;50.784;6.496;2022-10-16T08:53:19;1.23;;;1.20;;
351;SDS011;164;50.784;6.496;2022-10-16T08:55:49;3.47;;;1.20;;
351;SDS011;164;50.784;6.496;2022-10-16T08:58:18;2.60;;;1.08;;
351;SDS011;164;50.784;6.496;2022-10-16T09:00:47;1.75;;;1.00;;
351;SDS011;164;50.784;6.496;2022-10-16T09:03:21;1.75;;;0.80;;
351;SDS011;164;50.784;6.496;2022-10-16T09:08:54;2.05;;;0.63;;
351;SDS011;164;50.784;6.496;2022-10-16T09:11:36;1.30;;;0.65;;
351;SDS011;164;50.784;6.496;2022-10-16T09:14:17;1.52;;;0.60;;
351;SDS011;164;50.784;6.496;2022-10-16T09:17:03;1.15;;;0.73;;
351;SDS011;164;50.784;6.496;2022-10-16T09:19:47;1.55;;;0.60;;
351;SDS011;164;50.784;6.496;2022-10-16T09:22:18;3.55;;;0.82;;
351;SDS011;164;50.784;6.496;2022-10-16T09:24:51;1.25;;;0.40;;
351;SDS011;164;50.784;6.496;2022-10-16T09:27:18;2.00;;;0.95;;
351;SDS011;164;50.784;6.496;2022-10-16T09:29:45;0.90;;;0.50;;
351;SDS011;164;50.784;6.496;2022-10-16T09:32:14;1.10;;;0.60;;
351;SDS011;164;50.784;6.496;2022-10-16T09:34:47;0.80;;;0.50;;
351;SDS011;164;50.784;6.496;2022-10-16T09:37:17;1.40;;;0.75;;
351;SDS011;164;50.784;6.496;2022-10-16T09:39:46;1.40;;;0.52;;
351;SDS011;164;50.784;6.496;2022-10-16T09:42:14;1.48;;;0.70;;
351;SDS011;164;50.784;6.496;2022-10-16T09:44:46;1.48;;;0.88;;
351;SDS011;164;50.784;6.496;2022-10-16T09:47:15;1.13;;;0.68;;
351;SDS011;164;50.784;6.496;2022-10-16T09:49:52;1.02;;;0.40;;
351;SDS011;164;50.784;6.496;2022-10-16T09:52:22;4.53;;;0.50;;
351;SDS011;164;50.784;6.496;2022-10-16T09:54:50;0.82;;;0.43;;
351;SDS011;164;50.784;6.496;2022-10-16T09:57:18;0.60;;;0.30;;
351;SDS011;164;50.784;6.496;2022-10-16T09:59:47;1.02;;;0.40;;
351;SDS011;164;50.784;6.496;2022-10-16T10:02:15;1.08;;;0.45;;
351;SDS011;164;50.784;6.496;2022-10-16T10:04:47;1.17;;;0.60;;
351;SDS011;164;50.784;6.496;2022-10-16T10:07:19;0.80;;;0.50;;
351;SDS011;164;50.784;6.496;2022-10-16T10:09:49;1.25;;;0.52;;
351;SDS011;164;50.784;6.496;2022-10-16T10:12:17;0.95;;;0.50;;
351;SDS011;164;50.784;6.496;2022-10-16T10:14:46;1.10;;;0.57;;
351;SDS011;164;50.784;6.496;2022-10-16T10:17:15;1.95;;;0.35;;
351;SDS011;164;50.784;6.496;2022-10-16T10:19:51;1.63;;;0.60;;
351;SDS011;164;50.784;6.496;2022-10-16T10:22:23;1.15;;;0.30;;
351;SDS011;164;50.784;6.496;2022-10-16T10:24:56;0.70;;;0.50;;
351;SDS011;164;50.784;6.496;2022-10-16T10:27:29;1.27;;;0.45;;
351;SDS011;164;50.784;6.496;2022-10-16T10:30:02;2.45;;;0.40;;
351;SDS011;164;50.784;6.496;2022-10-16T10:32:38;1.40;;;0.45;;
351;SDS011;164;50.784;6.496;2022-10-16T10:35:14;4.68;;;0.52;;
351;SDS011;164;50.784;6.496;2022-10-16T10:37:54;0.82;;;0.55;;
351;SDS011;164;50.784;6.496;2022-10-16T10:40:32;1.73;;;0.38;;
351;SDS011;164;50.784;6.496;2022-10-16T10:43:08;1.05;;;0.50;;
351;SDS011;164;50.784;6.496;2022-10-16T10:45:46;0.60;;;0.40;;
351;SDS011;164;50.784;6.496;2022-10-16T10:48:19;0.98;;;0.50;;
351;SDS011;164;50.784;6.496;2022-10-16T10:50:56;0.60;;;0.40;;
351;SDS011;164;50.784;6.496;2022-10-16T10:53:32;0.90;;;0.40;;
351;SDS011;164;50.784;6.496;2022-10-16T10:56:08;0.60;;;0.30;;
351;SDS011;164;50.784;6.496;2022-10-16T10:58:49;1.52;;;0.40;;
351;SDS011;164;50.784;6.496;2022-10-16T11:01:37;1.20;;;0.70;;
351;SDS011;164;50.784;6.496;2022-10-16T11:04:19;1.67;;;0.40;;
351;SDS011;164;50.784;6.496;2022-10-16T11:07:05;1.48;;;0.35;;
351;SDS011;164;50.784;6.496;2022-10-16T11:09:39;0.40;;;0.20;;
351;SDS011;164;50.784;6.496;2022-10-16T11:12:11;0.85;;;0.50;;
351;SDS011;164;50.784;6.496;2022-10-16T11:14:46;0.80;;;0.40;;
351;SDS011;164;50.784;6.496;2022-10-16T11:17:18;0.55;;;0.30;;
351;SDS011;164;50.784;6.496;2022-10-16T11:19:52;1.77;;;0.40;;
351;SDS011;164;50.784;6.496;2022-10-16T11:22:24;0.60;;;0.38;;
351;SDS011;164;50.784;6.496;2022-10-16T11:24:59;1.25;;;0.60;;
351;SDS011;164;50.784;6.496;2022-10-16T11:27:35;1.48;;;0.40;;
351;SDS011;164;50.784;6.496;2022-10-16T11:30:06;2.40;;;0.52;;
351;SDS011;164;50.784;6.496;2022-10-16T11:32:46;0.50;;;0.38;;
351;SDS011;164;50.784;6.496;2022-10-16T11:35:19;0.70;;;0.40;;
351;SDS011;164;50.784;6.496;2022-10-16T11:37:49;1.13;;;0.55;;
351;SDS011;164;50.784;6.496;2022-10-16T11:40:22;0.60;;;0.30;;
351;SDS011;164;50.784;6.496;2022-10-16T11:42:54;0.70;;;0.50;;
351;SDS011;164;50.784;6.496;2022-10-16T11:45:30;0.77;;;0.45;;
351;SDS011;164;50.784;6.496;2022-10-16T11:48:04;0.60;;;0.40;;
351;SDS011;164;50.784;6.496;2022-10-16T11:50:40;1.25;;;0.45;;
351;SDS011;164;50.784;6.496;2022-10-16T11:53:13;0.60;;;0.30;;
351;SDS011;164;50.784;6.496;2022-10-16T11:55:49;2.13;;;0.50;;
351;SDS011;164;50.784;6.496;2022-10-16T11:58:21;0.63;;;0.40;;
351;SDS011;164;50.784;6.496;2022-10-16T12:00:54;3.55;;;0.60;;
351;SDS011;164;50.784;6.496;2022-10-16T12:03:27;1.17;;;0.30;;
351;SDS011;164;50.784;6.496;2022-10-16T12:06:04;0.88;;;0.40;;
351;SDS011;164;50.784;6.496;2022-10-16T12:08:40;1.75;;;0.65;;
351;SDS011;164;50.784;6.496;2022-10-16T12:11:22;0.90;;;0.50;;
351;SDS011;164;50.784;6.496;2022-10-16T12:14:03;0.95;;;0.32;;
351;SDS011;164;50.784;6.496;2022-10-16T12:16:32;0.60;;;0.40;;
351;SDS011;164;50.784;6.496;2022-10-16T12:19:09;1.52;;;0.50;;
351;SDS011;164;50.784;6.496;2022-10-16T12:21:38;3.42;;;1.33;;
351;SDS011;164;50.784;6.496;2022-10-16T12:24:05;0.80;;;0.38;;
351;SDS011;164;50.784;6.496;2022-10-16T12:26:36;1.45;;;0.45;;
351;SDS011;164;50.784;6.496;2022-10-16T12:29:13;1.73;;;0.43;;
351;SDS011;164;50.784;6.496;2022-10-16T12:31:48;1.02;;;0.40;;
351;SDS011;164;50.784;6.496;2022-10-16T12:34:20;0.60;;;0.40;;
351;SDS011;164;50.784;6.496;2022-10-16T12:36:49;0.50;;;0.30;;
351;SDS011;164;50.784;6.496;2022-10-16T12:39:20;4.65;;;0.55;;
351;SDS011;164;50.784;6.496;2022-10-16T12:41:59;0.98;;;0.40;;
351;SDS011;164;50.784;6.496;2022-10-16T12:44:31;1.58;;;0.95;;
351;SDS011;164;50.784;6.496;2022-10-16T12:46:59;0.50;;;0.30;;
351;SDS011;164;50.784;6.496;2022-10-16T12:49:30;1.25;;;0.60;;
351;SDS011;164;50.784;6.496;2022-10-16T12:52:01;0.77;;;0.35;;
351;SDS011;164;50.784;6.496;2022-10-16T12:54:29;0.88;;;0.50;;
351;SDS011;164;50.784;6.496;2022-10-16T12:57:08;1.38;;;0.45;;
351;SDS011;164;50.784;6.496;2022-10-16T12:59:48;4.13;;;0.60;;
351;SDS011;164;50.784;6.496;2022-10-16T13:02:44;2.25;;;1.13;;
351;SDS011;164;50.784;6.496;2022-10-16T13:05:42;1.10;;;0.50;;
351;SDS011;164;50.784;6.496;2022-10-16T13:08:24;1.02;;;0.70;;
351;SDS011;164;50.784;6.496;2022-10-16T13:11:03;1.20;;;0.47;;
351;SDS011;164;50.784;6.496;2022-10-16T13:13:41;1.00;;;0.50;;
351;SDS011;164;50.784;6.496;2022-10-16T13:16:22;1.75;;;0.65;;
351;SDS011;164;50.784;6.496;2022-10-16T13:18:59;0.60;;;0.30;;
351;SDS011;164;50.784;6.496;2022-10-16T13:21:38;3.10;;;1.23;;
351;SDS011;164;50.784;6.496;2022-10-16T13:24:15;1.70;;;0.50;;
351;SDS011;164;50.784;6.496;2022-10-16T13:26:53;3.45;;;0.60;;
351;SDS011;164;50.784;6.496;2022-10-16T13:29:29;2.65;;;0.40;;
351;SDS011;164;50.784;6.496;2022-10-16T13:31:57;0.75;;;0.45;;
351;SDS011;164;50.784;6.496;2022-10-16T13:34:26;0.82;;;0.40;;
351;SDS011;164;50.784;6.496;2022-10-16T13:36:53;2.53;;;0.63;;
351;SDS011;164;50.784;6.496;2022-10-16T13:39:21;1.40;;;0.40;;
351;SDS011;164;50.784;6.496;2022-10-16T13:44:36;1.25;;;0.65;;
351;SDS011;164;50.784;6.496;2022-10-16T13:47:10;1.55;;;0.60;;
351;SDS011;164;50.784;6.496;2022-10-16T13:49:42;1.30;;;0.60;;
351;SDS011;164;50.784;6.496;2022-10-16T13:52:15;1.02;;;0.63;;
351;SDS011;164;50.784;6.496;2022-10-16T13:54:44;1.13;;;0.55;;
351;SDS011;164;50.784;6.496;2022-10-16T13:57:12;0.73;;;0.47;;
351;SDS011;164;50.784;6.496;2022-10-16T13:59:41;0.60;;;0.40;;
351;SDS011;164;50.784;6.496;2022-10-16T14:02:14;1.02;;;0.50;;
351;SDS011;164;50.784;6.496;2022-10-16T14:04:46;0.70;;;0.47;;
351;SDS011;164;50.784;6.496;2022-10-16T14:07:14;0.70;;;0.30;;
351;SDS011;164;50.784;6.496;2022-10-16T14:09:47;1.17;;;0.50;;
351;SDS011;164;50.784;6.496;2022-10-16T14:12:18;2.38;;;0.40;;
351;SDS011;164;50.784;6.496;2022-10-16T14:14:47;0.57;;;0.40;;
351;SDS011;164;50.784;6.496;2022-10-16T14:17:18;0.60;;;0.30;;
351;SDS011;164;50.784;6.496;2022-10-16T14:19:54;1.20;;;0.40;;
351;SDS011;164;50.784;6.496;2022-10-16T14:22:32;2.83;;;0.85;;
351;SDS011;164;50.784;6.496;2022-10-16T14:25:00;0.77;;;0.50;;
351;SDS011;164;50.784;6.496;2022-10-16T14:27:31;3.17;;;0.80;;
351;SDS011;164;50.784;6.496;2022-10-16T14:30:14;0.90;;;0.57;;
351;SDS011;164;50.784;6.496;2022-10-16T14:32:52;1.10;;;0.63;;
351;SDS011;164;50.784;6.496;2022-10-16T14:35:22;1.08;;;0.50;;
351;SDS011;164;50.784;6.496;2022-10-16T14:37:51;1.10;;;0.50;;
351;SDS011;164;50.784;6.496;2022-10-16T14:40:23;1.60;;;0.60;;
351;SDS011;164;50.784;6.496;2022-10-16T14:42:52;2.08;;;0.50;;
351;SDS011;164;50.784;6.496;2022-10-16T14:45:22;1.17;;;0.65;;
351;SDS011;164;50.784;6.496;2022-10-16T14:47:52;1.08;;;0.50;;
351;SDS011;164;50.784;6.496;2022-10-16T14:50:21;0.70;;;0.30;;
351;SDS011;164;50.784;6.496;2022-10-16T14:52:48;1.08;;;0.35;;
351;SDS011;164;50.784;6.496;2022-10-16T14:55:15;1.45;;;0.47;;
351;SDS011;164;50.784;6.496;2022-10-16T14:57:43;1.35;;;0.70;;
351;SDS011;164;50.784;6.496;2022-10-16T15:00:15;0.80;;;0.40;;
351;SDS011;164;50.784;6.496;2022-10-16T15:02:45;0.60;;;0.55;;
351;SDS011;164;50.784;6.496;2022-10-16T15:05:15;0.52;;;0.45;;
351;SDS011;164;50.784;6.496;2022-10-16T15:07:44;0.95;;;0.50;;
351;SDS011;164;50.784;6.496;2022-10-16T15:10:11;1.10;;;0.63;;
351;SDS011;164;50.784;6.496;2022-10-16T15:12:38;0.77;;;0.50;;
351;SDS011;164;50.784;6.496;2022-10-16T15:15:15;1.30;;;0.30;;
351;SDS011;164;50.784;6.496;2022-10-16T15:17:57;0.75;;;0.50;;
351;SDS011;164;50.784;6.496;2022-10-16T15:20:26;1.50;;;0.50;;
351;SDS011;164;50.784;6.496;2022-10-16T15:22:55;1.08;;;0.47;;
351;SDS011;164;50.784;6.496;2022-10-16T15:25:33;0.80;;;0.40;;
351;SDS011;164;50.784;6.496;2022-10-16T15:28:04;1.90;;;0.50;;
351;SDS011;164;50.784;6.496;2022-10-16T15:30:32;2.05;;;0.80;;
351;SDS011;164;50.784;6.496;2022-10-16T15:33:01;1.83;;;0.40;;
351;SDS011;164;50.784;6.496;2022-10-16T15:35:29;1.10;;;0.55;;
351;SDS011;164;50.784;6.496;2022-10-16T15:37:56;1.45;;;0.30;;
351;SDS011;164;50.784;6.496;2022-10-16T15:40:23;1.25;;;0.40;;
351;SDS011;164;50.784;6.496;2022-10-16T15:42:50;1.02;;;0.40;;
351;SDS011;164;50.784;6.496;2022-10-16T15:45:17;0.60;;;0.40;;
351;SDS011;164;50.784;6.496;2022-10-16T15:47:45;1.00;;;0.70;;
351;SDS011;164;50.784;6.496;2022-10-16T15:50:14;2.78;;;2.60;;
351;SDS011;164;50.784;6.496;2022-10-16T15:52:42;3.15;;;2.95;;
351;SDS011;164;50.784;6.496;2022-10-16T15:55:10;1.10;;;1.10;;
351;SDS011;164;50.784;6.496;2022-10-16T15:57:38;2.08;;;1.00;;
351;SDS011;164;50.784;6.496;2022-10-16T16:00:06;0.90;;;0.70;;
351;SDS011;164;50.784;6.496;2022-10-16T16:02:35;1.33;;;0.93;;
351;SDS011;164;50.784;6.496;2022-10-16T16:05:02;1.10;;;1.00;;
351;SDS011;164;50.784;6.496;2022-10-16T16:07:33;0.77;;;0.70;;
351;SDS011;164;50.784;6.496;2022-10-16T16:10:00;1.88;;;0.40;;